createdAt,value
2023-04-16T00:01:57.173Z,1.10
2023-04-16T00:04:24.036Z,1.80
2023-04-16T00:06:50.882Z,3.00
2023-04-16T00:09:17.564Z,2.00
2023-04-16T00:11:44.209Z,2.60
2023-04-16T00:14:10.861Z,1.70
2023-04-16T00:16:38.608Z,1.50
2023-04-16T00:19:05.321Z,1.80
2023-04-16T00:21:32.163Z,2.40
2023-04-16T00:23:58.874Z,1.60
2023-04-16T00:26:25.605Z,1.60
2023-04-16T00:28:52.504Z,1.80
2023-04-16T00:31:27.002Z,1.10
2023-04-16T00:33:53.705Z,1.70
2023-04-16T00:36:20.400Z,1.80
2023-04-16T00:38:47.257Z,1.10
2023-04-16T00:41:14.281Z,1.60
2023-04-16T00:43:41.822Z,2.60
2023-04-16T00:46:08.588Z,9.40
2023-04-16T00:48:37.910Z,5.10
2023-04-16T00:51:09.112Z,6.10
2023-04-16T00:53:36.438Z,10.60
2023-04-16T00:56:06.846Z,4.90
2023-04-16T00:58:35.693Z,4.20
2023-04-16T01:01:02.531Z,4.70
2023-04-16T01:03:38.025Z,3.90
2023-04-16T01:06:06.316Z,1.90
2023-04-16T01:08:33.103Z,2.50
2023-04-16T01:10:59.783Z,3.70
2023-04-16T01:13:26.544Z,2.10
2023-04-16T01:15:53.309Z,1.80
2023-04-16T01:18:21.949Z,1.30
2023-04-16T01:20:50.041Z,1.60
2023-04-16T01:23:18.669Z,2.60
2023-04-16T01:25:46.365Z,1.40
2023-04-16T01:28:13.439Z,1.70
2023-04-16T01:30:40.277Z,1.90
2023-04-16T01:33:14.534Z,2.50
2023-04-16T01:35:42.052Z,3.10
2023-04-16T01:38:09.635Z,1.50
2023-04-16T01:40:38.244Z,4.90
2023-04-16T01:43:05.274Z,2.20
2023-04-16T01:45:33.660Z,2.90
2023-04-16T01:48:00.923Z,1.30
2023-04-16T01:50:28.351Z,1.00
2023-04-16T01:52:54.939Z,1.00
2023-04-16T01:57:48.689Z,0.80
2023-04-16T02:00:15.708Z,1.20
2023-04-16T02:02:46.238Z,2.20
2023-04-16T02:05:16.748Z,2.40
2023-04-16T02:07:43.363Z,2.60
2023-04-16T02:12:39.080Z,1.20
2023-04-16T02:15:06.640Z,1.70
2023-04-16T02:17:33.377Z,1.10
2023-04-16T02:20:10.988Z,1.10
2023-04-16T02:22:47.537Z,1.80
2023-04-16T02:25:16.652Z,2.40
2023-04-16T02:27:43.651Z,1.10
2023-04-16T02:30:31.308Z,0.90
2023-04-16T02:32:58.059Z,0.90
2023-04-16T02:35:24.754Z,1.10
2023-04-16T02:37:52.392Z,1.20
2023-04-16T02:40:19.568Z,0.80
2023-04-16T02:42:46.300Z,1.90
2023-04-16T02:45:13.161Z,9.30
2023-04-16T02:47:39.855Z,1.00
2023-04-16T02:50:07.658Z,2.20
2023-04-16T02:52:34.312Z,5.80
2023-04-16T02:55:01.231Z,1.30
2023-04-16T02:57:27.843Z,1.20
2023-04-16T03:02:21.386Z,3.10
2023-04-16T03:04:48.306Z,1.20
2023-04-16T03:07:15.175Z,1.60
2023-04-16T03:09:41.930Z,1.10
2023-04-16T03:12:08.667Z,3.20
2023-04-16T03:14:35.407Z,1.00
2023-04-16T03:17:02.474Z,3.20
2023-04-16T03:19:29.165Z,0.90
2023-04-16T03:21:56.351Z,1.40
2023-04-16T03:24:23.159Z,3.00
2023-04-16T03:29:16.994Z,1.00
2023-04-16T03:31:44.075Z,1.20
2023-04-16T03:34:10.839Z,2.90
2023-04-16T03:36:39.076Z,1.30
2023-04-16T03:39:05.818Z,1.40
2023-04-16T03:41:33.228Z,1.80
2023-04-16T03:44:00.631Z,1.40
2023-04-16T03:46:27.369Z,1.50
2023-04-16T03:48:54.562Z,1.60
2023-04-16T03:51:21.552Z,3.20
2023-04-16T03:56:14.822Z,5.50
2023-04-16T04:01:08.272Z,1.30
2023-04-16T04:03:35.768Z,1.30
2023-04-16T04:06:08.284Z,1.80
2023-04-16T04:08:35.290Z,2.00
2023-04-16T04:11:02.608Z,1.40
2023-04-16T04:13:30.039Z,1.50
2023-04-16T04:15:57.860Z,1.60
2023-04-16T04:20:52.076Z,1.30
2023-04-16T04:23:20.330Z,1.40
2023-04-16T04:25:47.334Z,1.40
2023-04-16T04:28:14.039Z,2.00
2023-04-16T04:30:40.734Z,1.40
2023-04-16T04:33:07.447Z,2.40
2023-04-16T04:35:34.306Z,1.80
2023-04-16T04:38:03.734Z,2.20
2023-04-16T04:40:30.993Z,1.60
2023-04-16T04:42:57.685Z,1.50
2023-04-16T04:45:25.754Z,2.00
2023-04-16T04:47:53.749Z,1.40
2023-04-16T04:50:22.128Z,1.60
2023-04-16T04:52:48.730Z,2.10
2023-04-16T04:55:16.188Z,3.60
2023-04-16T04:57:43.004Z,2.30
2023-04-16T05:00:10.448Z,1.90
2023-04-16T05:02:47.589Z,2.10
2023-04-16T05:05:14.420Z,5.00
2023-04-16T05:10:09.096Z,3.70
2023-04-16T05:12:35.887Z,4.20
2023-04-16T05:15:02.567Z,1.80
2023-04-16T05:17:29.303Z,1.60
2023-04-16T05:19:56.040Z,1.90
2023-04-16T05:24:49.268Z,3.10
2023-04-16T05:29:43.005Z,2.40
2023-04-16T05:32:09.694Z,2.10
2023-04-16T05:37:03.013Z,3.90
2023-04-16T05:41:56.209Z,3.40
2023-04-16T05:44:22.923Z,3.50
2023-04-16T05:49:18.851Z,3.10
2023-04-16T05:51:45.832Z,3.10
2023-04-16T05:54:12.473Z,2.70
2023-04-16T05:59:05.860Z,4.20
2023-04-16T06:01:34.309Z,2.20
2023-04-16T06:04:01.349Z,3.40
2023-04-16T06:06:28.106Z,3.60
2023-04-16T06:11:21.318Z,2.80
2023-04-16T06:13:47.958Z,3.50
2023-04-16T06:16:14.844Z,4.90
2023-04-16T06:18:41.794Z,3.20
2023-04-16T06:21:08.392Z,3.20
2023-04-16T06:26:01.696Z,4.30
2023-04-16T06:28:28.330Z,3.60
2023-04-16T06:33:21.747Z,4.70
2023-04-16T06:35:48.369Z,4.30
2023-04-16T06:40:41.983Z,5.60
2023-04-16T06:43:08.635Z,3.80
2023-04-16T06:45:35.312Z,3.00
2023-04-16T06:50:30.519Z,4.20
2023-04-16T06:52:57.376Z,5.90
2023-04-16T06:55:23.988Z,4.00
2023-04-16T07:00:17.560Z,3.50
2023-04-16T07:02:44.324Z,3.60
2023-04-16T07:05:11.538Z,2.90
2023-04-16T07:07:38.145Z,3.40
2023-04-16T07:10:05.975Z,3.20
2023-04-16T07:12:33.108Z,5.30
2023-04-16T07:14:59.835Z,3.60
2023-04-16T07:17:26.804Z,4.50
2023-04-16T07:19:53.459Z,3.20
2023-04-16T07:22:21.956Z,4.10
2023-04-16T07:24:48.682Z,3.60
2023-04-16T07:27:15.348Z,4.80
2023-04-16T07:29:42.028Z,5.40
2023-04-16T07:32:08.834Z,6.10
2023-04-16T07:34:35.814Z,4.30
2023-04-16T07:37:02.482Z,4.00
2023-04-16T07:39:29.147Z,5.80
2023-04-16T07:41:55.969Z,4.60
2023-04-16T07:44:22.688Z,6.70
2023-04-16T07:46:49.340Z,4.50
2023-04-16T07:49:16.045Z,3.90
2023-04-16T07:51:42.760Z,2.80
2023-04-16T07:54:10.803Z,4.60
2023-04-16T07:56:37.424Z,3.50
2023-04-16T07:59:18.440Z,4.00
2023-04-16T08:01:49.912Z,6.80
2023-04-16T08:04:23.160Z,4.30
2023-04-16T08:06:54.565Z,4.20
2023-04-16T08:09:23.375Z,5.80
2023-04-16T08:11:50.131Z,6.00
2023-04-16T08:14:17.531Z,4.10
2023-04-16T08:16:44.530Z,4.40
2023-04-16T08:19:11.610Z,6.40
2023-04-16T08:21:38.976Z,5.60
2023-04-16T08:24:05.894Z,4.60
2023-04-16T08:26:32.610Z,4.80
2023-04-16T08:28:59.476Z,3.90
2023-04-16T08:31:26.367Z,3.80
2023-04-16T08:33:53.142Z,2.30
2023-04-16T08:36:19.880Z,4.50
2023-04-16T08:38:47.178Z,2.60
2023-04-16T08:41:14.114Z,3.10
2023-04-16T08:43:45.061Z,2.70
2023-04-16T08:46:12.875Z,3.50
2023-04-16T08:48:42.889Z,2.90
2023-04-16T08:51:11.217Z,3.20
2023-04-16T08:54:12.180Z,3.10
2023-04-16T08:56:42.841Z,4.00
2023-04-16T08:59:10.121Z,5.40
2023-04-16T09:01:38.586Z,6.30
2023-04-16T09:04:07.403Z,2.60
2023-04-16T09:06:35.249Z,4.50
2023-04-16T09:09:04.866Z,3.90
2023-04-16T09:11:32.472Z,3.30
2023-04-16T09:14:00.634Z,3.80
2023-04-16T09:16:30.808Z,3.60
2023-04-16T09:18:57.685Z,4.60
2023-04-16T09:21:25.134Z,4.50
2023-04-16T09:23:53.517Z,5.30
2023-04-16T09:26:20.965Z,4.40
2023-04-16T09:28:50.868Z,4.50
2023-04-16T09:31:19.090Z,4.20
2023-04-16T09:34:04.947Z,4.50
2023-04-16T09:36:32.782Z,4.90
2023-04-16T09:39:00.461Z,4.60
2023-04-16T09:41:32.612Z,5.70
2023-04-16T09:44:02.263Z,3.30
2023-04-16T09:46:35.139Z,3.90
2023-04-16T09:49:15.118Z,3.70
2023-04-16T09:51:42.829Z,5.00
2023-04-16T09:54:09.974Z,3.40
2023-04-16T09:56:44.123Z,4.20
2023-04-16T09:59:21.158Z,3.40
2023-04-16T10:01:53.773Z,3.60
2023-04-16T10:05:06.849Z,3.40
2023-04-16T10:07:35.991Z,6.30
2023-04-16T10:10:04.144Z,4.40
2023-04-16T10:12:32.908Z,3.40
2023-04-16T10:14:59.719Z,3.50
2023-04-16T10:17:30.090Z,3.40
2023-04-16T10:19:58.564Z,3.60
2023-04-16T10:22:26.425Z,5.00
2023-04-16T10:24:54.828Z,4.50
2023-04-16T10:27:21.805Z,4.70
2023-04-16T10:29:49.668Z,4.20
2023-04-16T10:32:18.447Z,5.80
2023-04-16T10:34:46.190Z,4.90
2023-04-16T10:37:12.902Z,4.50
2023-04-16T10:39:39.635Z,3.70
2023-04-16T10:42:09.368Z,5.10
2023-04-16T10:44:36.684Z,2.90
2023-04-16T10:47:09.705Z,3.80
2023-04-16T10:49:36.360Z,3.10
2023-04-16T10:52:20.348Z,3.70
2023-04-16T10:54:50.289Z,3.00
2023-04-16T10:57:19.784Z,6.10
2023-04-16T10:59:49.270Z,6.60
2023-04-16T11:02:19.735Z,4.50
2023-04-16T11:04:48.517Z,2.70
2023-04-16T11:07:31.382Z,7.10
2023-04-16T11:10:05.380Z,4.70
2023-04-16T11:12:42.102Z,4.80
2023-04-16T11:15:14.056Z,3.60
2023-04-16T11:17:48.703Z,3.70
2023-04-16T11:20:19.928Z,3.50
2023-04-16T11:25:23.776Z,4.40
2023-04-16T11:27:52.136Z,3.90
2023-04-16T11:30:28.022Z,4.10
2023-04-16T11:32:54.958Z,3.90
2023-04-16T11:35:22.128Z,3.40
2023-04-16T11:40:35.197Z,5.70
2023-04-16T11:43:04.264Z,3.90
2023-04-16T11:45:31.531Z,4.50
2023-04-16T11:47:58.396Z,3.50
2023-04-16T11:50:29.161Z,4.90
2023-04-16T11:53:04.123Z,3.50
2023-04-16T11:55:32.356Z,4.40
2023-04-16T11:58:12.167Z,4.90
2023-04-16T12:00:39.036Z,3.30
2023-04-16T12:03:05.891Z,2.50
2023-04-16T12:05:40.900Z,3.40
2023-04-16T12:08:10.649Z,3.60
2023-04-16T12:10:54.575Z,3.60
2023-04-16T12:13:21.437Z,3.60
2023-04-16T12:15:51.764Z,4.00
2023-04-16T12:18:20.849Z,2.80
2023-04-16T12:20:47.679Z,3.70
2023-04-16T12:23:24.393Z,4.40
2023-04-16T12:25:52.061Z,3.30
2023-04-16T12:28:33.519Z,4.30
2023-04-16T12:31:01.691Z,3.80
2023-04-16T12:33:29.386Z,3.00
2023-04-16T12:35:56.391Z,2.70
2023-04-16T12:38:24.604Z,4.10
2023-04-16T12:40:52.160Z,3.30
2023-04-16T12:43:19.894Z,4.20
2023-04-16T12:45:46.866Z,2.70
2023-04-16T12:48:13.528Z,4.20
2023-04-16T12:50:40.269Z,2.80
2023-04-16T12:53:07.058Z,3.20
2023-04-16T12:55:33.949Z,3.10
2023-04-16T12:58:01.073Z,3.00
2023-04-16T13:00:27.969Z,3.10
2023-04-16T13:02:54.893Z,2.90
2023-04-16T13:05:21.627Z,3.00
2023-04-16T13:07:48.365Z,3.60
2023-04-16T13:10:15.071Z,4.20
2023-04-16T13:12:41.681Z,2.50
2023-04-16T13:15:09.362Z,3.00
2023-04-16T13:17:36.138Z,4.10
2023-04-16T13:20:03.196Z,2.70
2023-04-16T13:22:29.984Z,3.60
2023-04-16T13:24:57.102Z,4.50
2023-04-16T13:27:23.855Z,2.60
2023-04-16T13:29:50.614Z,3.00
2023-04-16T13:32:18.995Z,3.70
2023-04-16T13:34:45.748Z,2.90
2023-04-16T13:37:12.431Z,3.90
2023-04-16T13:39:39.181Z,3.00
2023-04-16T13:42:05.981Z,4.40
2023-04-16T13:44:32.606Z,3.10
2023-04-16T13:46:59.425Z,5.30
2023-04-16T13:49:26.387Z,5.40
2023-04-16T13:51:53.149Z,6.20
2023-04-16T13:54:19.815Z,4.30
2023-04-16T13:56:46.571Z,3.60
2023-04-16T13:59:15.778Z,3.30
2023-04-16T14:01:42.762Z,3.50
2023-04-16T14:04:09.522Z,4.40
2023-04-16T14:06:36.440Z,3.10
2023-04-16T14:09:04.300Z,5.30
2023-04-16T14:11:31.560Z,3.40
2023-04-16T14:13:58.534Z,4.50
2023-04-16T14:16:26.500Z,3.30
2023-04-16T14:18:53.469Z,3.20
2023-04-16T14:21:20.120Z,6.20
2023-04-16T14:23:46.883Z,3.20
2023-04-16T14:26:13.739Z,4.40
2023-04-16T14:28:41.497Z,5.00
2023-04-16T14:31:08.190Z,5.00
2023-04-16T14:33:35.048Z,6.10
2023-04-16T14:36:03.159Z,3.00
2023-04-16T14:38:31.447Z,3.50
2023-04-16T14:40:58.234Z,5.50
2023-04-16T14:43:25.017Z,4.00
2023-04-16T14:45:52.914Z,3.70
2023-04-16T14:48:19.882Z,4.00
2023-04-16T14:50:46.813Z,4.10
2023-04-16T14:53:13.884Z,3.30
2023-04-16T14:55:40.582Z,3.30
2023-04-16T14:58:07.341Z,3.50
2023-04-16T15:00:37.085Z,3.30
2023-04-16T15:03:04.510Z,3.30
2023-04-16T15:05:31.917Z,3.70
2023-04-16T15:07:58.633Z,3.30
2023-04-16T15:10:26.532Z,3.50
2023-04-16T15:12:53.230Z,3.80
2023-04-16T15:15:19.944Z,3.60
2023-04-16T15:17:47.757Z,3.20
2023-04-16T15:20:15.006Z,3.50
2023-04-16T15:22:41.816Z,4.60
2023-04-16T15:25:08.926Z,3.50
2023-04-16T15:27:36.618Z,3.80
2023-04-16T15:30:03.644Z,4.20
2023-04-16T15:32:31.247Z,3.40
2023-04-16T15:34:58.001Z,3.90
2023-04-16T15:37:24.662Z,3.30
2023-04-16T15:39:51.301Z,3.10
2023-04-16T15:42:17.969Z,2.80
2023-04-16T15:44:44.728Z,3.30
2023-04-16T15:47:11.452Z,3.50
2023-04-16T15:49:38.263Z,4.80
2023-04-16T15:52:04.984Z,3.20
2023-04-16T15:54:32.224Z,3.00
2023-04-16T15:56:59.136Z,3.20
2023-04-16T15:59:26.854Z,2.70
2023-04-16T16:01:53.849Z,4.00
2023-04-16T16:04:23.131Z,3.60
2023-04-16T16:06:50.439Z,3.00
2023-04-16T16:09:17.568Z,2.70
2023-04-16T16:11:44.322Z,2.60
2023-04-16T16:14:10.976Z,2.50
2023-04-16T16:16:37.927Z,2.40
2023-04-16T16:19:04.793Z,3.10
2023-04-16T16:21:32.695Z,4.00
2023-04-16T16:23:59.527Z,2.90
2023-04-16T16:26:26.187Z,3.80
2023-04-16T16:28:52.869Z,3.90
2023-04-16T16:31:19.653Z,2.50
2023-04-16T16:33:46.369Z,4.00
2023-04-16T16:36:13.103Z,2.00
2023-04-16T16:38:42.905Z,2.20
2023-04-16T16:41:09.621Z,1.50
2023-04-16T16:43:38.994Z,2.20
2023-04-16T16:46:07.640Z,1.20
2023-04-16T16:48:34.379Z,1.20
2023-04-16T16:51:01.091Z,1.50
2023-04-16T16:53:27.730Z,1.10
2023-04-16T16:55:54.375Z,1.40
2023-04-16T16:58:21.096Z,1.40
2023-04-16T17:00:47.796Z,1.20
2023-04-16T17:03:14.690Z,0.90
2023-04-16T17:05:41.597Z,3.00
2023-04-16T17:08:08.242Z,1.30
2023-04-16T17:10:35.940Z,1.30
2023-04-16T17:13:02.636Z,1.40
2023-04-16T17:15:29.344Z,1.50
2023-04-16T17:17:56.752Z,1.50
2023-04-16T17:20:23.433Z,1.30
2023-04-16T17:22:51.209Z,1.50
2023-04-16T17:25:17.957Z,2.30
2023-04-16T17:27:44.651Z,1.70
2023-04-16T17:30:11.533Z,1.70
2023-04-16T17:32:38.214Z,2.90
2023-04-16T17:35:07.037Z,1.90
2023-04-16T17:37:34.348Z,1.90
2023-04-16T17:40:01.277Z,1.70
2023-04-16T17:42:27.929Z,3.20
2023-04-16T17:44:54.568Z,1.80
2023-04-16T17:47:21.317Z,1.60
2023-04-16T17:49:48.003Z,2.50
2023-04-16T17:52:14.781Z,2.60
2023-04-16T17:54:42.209Z,1.70
2023-04-16T17:57:08.922Z,1.40
2023-04-16T17:59:35.960Z,1.70
2023-04-16T18:02:02.785Z,2.70
2023-04-16T18:04:29.768Z,1.70
2023-04-16T18:06:56.517Z,3.00
2023-04-16T18:09:23.155Z,3.70
2023-04-16T18:11:49.803Z,2.60
2023-04-16T18:14:19.803Z,2.20
2023-04-16T18:16:48.290Z,1.40
2023-04-16T18:19:18.591Z,2.80
2023-04-16T18:21:45.243Z,3.20
2023-04-16T18:24:12.246Z,2.70
2023-04-16T18:26:40.919Z,2.00
2023-04-16T18:29:08.168Z,4.70
2023-04-16T18:31:35.974Z,4.60
2023-04-16T18:34:02.944Z,2.40
2023-04-16T18:36:29.829Z,8.60
2023-04-16T18:39:02.241Z,6.50
2023-04-16T18:41:30.980Z,12.90
2023-04-16T18:43:57.784Z,8.60
2023-04-16T18:46:25.438Z,7.80
2023-04-16T18:48:52.324Z,23.50
2023-04-16T18:51:18.992Z,39.70
2023-04-16T18:53:45.933Z,24.80
2023-04-16T18:56:12.729Z,25.60
2023-04-16T18:58:39.539Z,25.00
2023-04-16T19:01:11.401Z,11.40
2023-04-16T19:03:38.932Z,7.70
2023-04-16T19:06:06.450Z,17.40
2023-04-16T19:08:33.375Z,7.50
2023-04-16T19:11:00.238Z,29.60
2023-04-16T19:13:27.014Z,8.30
2023-04-16T19:16:02.157Z,3.00
2023-04-16T19:18:29.219Z,5.70
2023-04-16T19:21:00.752Z,5.70
2023-04-16T19:23:27.941Z,7.20
2023-04-16T19:25:57.053Z,22.30
2023-04-16T19:28:24.762Z,6.80
2023-04-16T19:30:52.300Z,5.80
2023-04-16T19:33:19.707Z,19.90
2023-04-16T19:35:47.464Z,16.50
2023-04-16T19:38:14.518Z,5.10
2023-04-16T19:40:45.001Z,4.50
2023-04-16T19:43:12.007Z,7.00
2023-04-16T19:45:46.532Z,4.50
2023-04-16T19:48:13.798Z,17.80
2023-04-16T19:50:41.810Z,12.40
2023-04-16T19:53:09.162Z,7.00
2023-04-16T19:55:36.628Z,21.20
2023-04-16T19:58:06.522Z,8.40
2023-04-16T20:00:35.956Z,5.20
2023-04-16T20:03:03.190Z,8.90
2023-04-16T20:05:30.175Z,5.30
2023-04-16T20:07:57.098Z,10.20
2023-04-16T20:10:24.153Z,7.00
2023-04-16T20:12:51.611Z,5.90
2023-04-16T20:15:19.016Z,13.80
2023-04-16T20:17:45.983Z,5.00
2023-04-16T20:20:15.622Z,7.90
2023-04-16T20:22:43.241Z,4.30
2023-04-16T20:25:10.382Z,5.90
2023-04-16T20:27:37.118Z,3.60
2023-04-16T20:30:05.500Z,2.90
2023-04-16T20:32:32.413Z,3.40
2023-04-16T20:34:59.850Z,3.40
2023-04-16T20:37:28.863Z,3.20
2023-04-16T20:39:56.312Z,3.50
2023-04-16T20:42:26.469Z,2.70
2023-04-16T20:44:56.726Z,3.00
2023-04-16T20:47:23.880Z,2.90
2023-04-16T20:49:50.702Z,2.80
2023-04-16T20:52:17.487Z,2.70
2023-04-16T20:54:44.484Z,3.10
2023-04-16T20:57:11.216Z,2.90
2023-04-16T20:59:37.861Z,2.70
2023-04-16T21:02:04.758Z,3.00
2023-04-16T21:04:32.000Z,3.00
2023-04-16T21:07:03.251Z,4.20
2023-04-16T21:09:30.962Z,2.90
2023-04-16T21:11:57.811Z,3.20
2023-04-16T21:14:24.519Z,2.00
2023-04-16T21:16:51.350Z,3.10
2023-04-16T21:19:18.109Z,3.20
2023-04-16T21:21:45.014Z,3.80
2023-04-16T21:24:11.730Z,4.60
2023-04-16T21:26:38.485Z,3.80
2023-04-16T21:29:05.159Z,2.70
2023-04-16T21:31:31.850Z,3.00
2023-04-16T21:33:58.508Z,3.30
2023-04-16T21:36:27.487Z,3.80
2023-04-16T21:38:54.137Z,3.70
2023-04-16T21:41:21.166Z,5.40
2023-04-16T21:43:47.915Z,3.90
2023-04-16T21:46:14.714Z,4.50
2023-04-16T21:48:41.460Z,3.80
2023-04-16T21:51:08.542Z,4.30
2023-04-16T21:53:35.329Z,9.80
2023-04-16T21:56:02.251Z,3.60
2023-04-16T21:58:29.042Z,4.00
2023-04-16T22:00:55.965Z,3.90
2023-04-16T22:03:27.705Z,3.90
2023-04-16T22:06:01.759Z,4.20
2023-04-16T22:08:29.634Z,5.00
2023-04-16T22:11:01.411Z,4.00
2023-04-16T22:13:32.445Z,4.80
2023-04-16T22:16:02.641Z,4.90
2023-04-16T22:18:32.938Z,3.80
2023-04-16T22:20:59.944Z,3.80
2023-04-16T22:23:26.681Z,3.50
2023-04-16T22:25:54.957Z,3.70
2023-04-16T22:28:21.612Z,5.40
2023-04-16T22:30:48.380Z,6.40
2023-04-16T22:33:15.244Z,6.30
2023-04-16T22:35:42.129Z,4.80
2023-04-16T22:38:08.880Z,5.60
2023-04-16T22:40:35.663Z,4.00
2023-04-16T22:43:02.330Z,3.60
2023-04-16T22:45:29.396Z,5.80
2023-04-16T22:47:56.037Z,5.40
2023-04-16T22:50:23.295Z,4.70
2023-04-16T22:52:49.979Z,5.20
2023-04-16T22:55:16.874Z,6.10
2023-04-16T22:57:43.535Z,6.80
2023-04-16T23:00:17.708Z,4.00
2023-04-16T23:02:45.281Z,4.50
2023-04-16T23:05:12.281Z,5.50
2023-04-16T23:07:39.124Z,4.90
2023-04-16T23:10:08.353Z,5.10
2023-04-16T23:12:37.593Z,5.50
2023-04-16T23:15:06.756Z,4.80
2023-04-16T23:17:35.083Z,4.60
2023-04-16T23:20:02.952Z,5.40
2023-04-16T23:22:29.622Z,4.00
2023-04-16T23:24:56.357Z,4.50
2023-04-16T23:27:23.105Z,5.60
2023-04-16T23:29:49.782Z,4.30
2023-04-16T23:32:16.383Z,5.40
2023-04-16T23:37:09.573Z,4.40
2023-04-16T23:39:36.216Z,4.30
2023-04-16T23:42:03.329Z,4.60
2023-04-16T23:44:29.991Z,7.70
2023-04-16T23:46:57.409Z,4.10
2023-04-16T23:49:24.670Z,4.30
2023-04-16T23:51:51.559Z,4.40
2023-04-16T23:54:18.305Z,4.90
2023-04-16T23:56:45.016Z,5.30
2023-04-16T23:59:11.812Z,5.60
